createdAt,value
2017-12-27T00:00:36.843Z,13.03
2017-12-27T00:03:10.010Z,12.70
2017-12-27T00:05:43.272Z,12.40
2017-12-27T00:08:16.359Z,12.37
2017-12-27T00:10:49.591Z,12.17
2017-12-27T00:13:22.657Z,11.23
2017-12-27T00:15:55.828Z,12.07
2017-12-27T00:18:28.836Z,11.00
2017-12-27T00:24:12.004Z,11.40
2017-12-27T00:26:45.305Z,11.23
2017-12-27T00:29:18.540Z,11.23
2017-12-27T00:31:45.476Z,11.30
2017-12-27T00:34:12.948Z,11.77
2017-12-27T00:36:40.426Z,11.60
2017-12-27T00:39:07.932Z,11.33
2017-12-27T00:41:35.396Z,11.77
2017-12-27T00:44:02.880Z,10.17
2017-12-27T00:46:30.358Z,10.43
2017-12-27T00:48:57.866Z,10.97
2017-12-27T00:51:25.332Z,10.50
2017-12-27T00:53:52.928Z,10.20
2017-12-27T00:56:20.501Z,10.93
2017-12-27T00:58:48.069Z,10.93
2017-12-27T01:01:15.571Z,10.53
2017-12-27T01:03:43.056Z,10.13
2017-12-27T01:06:10.520Z,10.43
2017-12-27T01:08:38.067Z,10.40
2017-12-27T01:11:05.588Z,10.60
2017-12-27T01:13:33.052Z,10.33
2017-12-27T01:16:00.526Z,10.13
2017-12-27T01:18:28.146Z,11.23
2017-12-27T01:20:55.616Z,11.90
2017-12-27T01:23:23.084Z,11.63
2017-12-27T01:25:50.620Z,11.87
2017-12-27T01:28:18.108Z,12.23
2017-12-27T01:30:45.595Z,12.63
2017-12-27T01:33:13.096Z,11.63
2017-12-27T01:35:40.575Z,12.30
2017-12-27T01:38:08.096Z,11.23
2017-12-27T01:40:35.576Z,11.40
2017-12-27T01:43:03.041Z,11.23
2017-12-27T01:45:30.504Z,11.80
2017-12-27T01:47:58.043Z,11.83
2017-12-27T01:50:25.517Z,11.53
2017-12-27T01:52:53.008Z,11.40
2017-12-27T01:55:20.491Z,11.47
2017-12-27T01:57:47.992Z,11.40
2017-12-27T02:00:15.471Z,10.90
2017-12-27T02:02:42.976Z,11.03
2017-12-27T02:05:10.450Z,11.70
2017-12-27T02:07:37.920Z,11.00
2017-12-27T02:10:05.414Z,10.73
2017-12-27T02:12:32.888Z,12.20
2017-12-27T02:15:00.372Z,11.57
2017-12-27T02:17:27.884Z,10.97
2017-12-27T02:19:55.397Z,11.60
2017-12-27T02:22:22.884Z,11.27
2017-12-27T02:24:50.356Z,11.30
2017-12-27T02:27:17.842Z,11.33
2017-12-27T02:29:45.315Z,11.50
2017-12-27T02:32:12.796Z,11.97
2017-12-27T02:34:40.264Z,11.93
2017-12-27T02:37:07.802Z,11.53
2017-12-27T02:42:48.400Z,11.77
2017-12-27T02:45:15.869Z,12.70
2017-12-27T02:47:43.336Z,12.70
2017-12-27T02:50:10.817Z,12.20
2017-12-27T02:52:38.281Z,11.70
2017-12-27T02:55:05.848Z,13.30
2017-12-27T02:57:33.374Z,12.33
2017-12-27T03:00:00.860Z,12.23
2017-12-27T03:02:28.326Z,11.70
2017-12-27T03:04:55.795Z,11.23
2017-12-27T03:07:23.281Z,11.93
2017-12-27T03:09:50.756Z,12.33
2017-12-27T03:12:18.260Z,12.60
2017-12-27T03:14:45.728Z,11.70
2017-12-27T03:17:13.193Z,11.00
2017-12-27T03:19:40.684Z,11.70
2017-12-27T03:22:08.148Z,11.37
2017-12-27T03:24:35.632Z,12.40
2017-12-27T03:27:03.108Z,12.20
2017-12-27T03:29:30.612Z,12.87
2017-12-27T03:31:58.084Z,13.23
2017-12-27T03:34:25.562Z,13.37
2017-12-27T03:36:53.044Z,14.10
2017-12-27T03:39:20.507Z,12.47
2017-12-27T03:41:47.988Z,12.57
2017-12-27T03:44:15.506Z,12.40
2017-12-27T03:46:42.991Z,12.97
2017-12-27T03:49:10.464Z,12.17
2017-12-27T03:51:38.017Z,12.50
2017-12-27T03:54:05.496Z,12.20
2017-12-27T03:56:32.963Z,12.23
2017-12-27T03:59:00.448Z,12.13
2017-12-27T04:01:27.925Z,11.40
2017-12-27T04:03:55.392Z,12.77
2017-12-27T04:06:22.880Z,12.00
2017-12-27T04:08:50.356Z,12.50
2017-12-27T04:11:17.815Z,11.97
2017-12-27T04:13:45.316Z,11.50
2017-12-27T04:16:12.784Z,11.67
2017-12-27T04:18:40.251Z,12.10
2017-12-27T04:21:07.756Z,12.90
2017-12-27T04:23:35.257Z,12.70
2017-12-27T04:26:02.736Z,13.60
2017-12-27T04:28:30.223Z,12.50
2017-12-27T04:30:57.689Z,12.10
2017-12-27T04:33:25.151Z,13.87
2017-12-27T04:35:52.635Z,13.63
2017-12-27T04:38:20.108Z,14.10
2017-12-27T04:40:47.575Z,13.13
2017-12-27T04:43:15.066Z,12.97
2017-12-27T04:45:42.686Z,12.90
2017-12-27T04:48:10.156Z,13.60
2017-12-27T04:50:37.700Z,12.23
2017-12-27T04:53:05.171Z,12.33
2017-12-27T04:55:32.635Z,12.67
2017-12-27T04:58:00.131Z,12.77
2017-12-27T05:00:27.605Z,12.40
2017-12-27T05:02:55.071Z,12.63
2017-12-27T05:05:22.551Z,12.43
2017-12-27T05:07:50.030Z,11.40
2017-12-27T05:10:17.509Z,12.20
2017-12-27T05:12:44.996Z,12.30
2017-12-27T05:15:12.468Z,12.83
2017-12-27T05:17:39.937Z,12.03
2017-12-27T05:20:07.420Z,13.20
2017-12-27T05:22:34.884Z,12.93
2017-12-27T05:25:02.352Z,12.13
2017-12-27T05:27:29.839Z,12.60
2017-12-27T05:29:57.308Z,11.70
2017-12-27T05:32:24.797Z,11.60
2017-12-27T05:34:52.277Z,12.47
2017-12-27T05:37:19.739Z,12.83
2017-12-27T05:39:47.241Z,15.00
2017-12-27T05:42:14.745Z,12.50
2017-12-27T05:44:42.212Z,13.17
2017-12-27T05:47:09.696Z,13.47
2017-12-27T05:49:37.172Z,14.30
2017-12-27T05:52:04.654Z,13.87
2017-12-27T05:54:32.135Z,12.80
2017-12-27T05:56:59.659Z,12.93
2017-12-27T05:59:27.143Z,15.30
2017-12-27T06:01:54.617Z,15.47
2017-12-27T06:04:22.107Z,14.53
2017-12-27T06:06:49.572Z,14.47
2017-12-27T06:09:17.046Z,15.30
2017-12-27T06:11:44.527Z,15.57
2017-12-27T06:14:12.017Z,14.80
2017-12-27T06:16:39.540Z,15.00
2017-12-27T06:19:07.012Z,14.03
2017-12-27T06:21:34.496Z,13.73
2017-12-27T06:24:01.986Z,15.20
2017-12-27T06:26:29.555Z,15.40
2017-12-27T06:28:57.097Z,14.73
2017-12-27T06:31:24.574Z,14.83
2017-12-27T06:33:52.056Z,14.67
2017-12-27T06:36:19.540Z,14.83
2017-12-27T06:38:47.040Z,15.03
2017-12-27T06:41:14.528Z,15.40
2017-12-27T06:43:42.003Z,14.27
2017-12-27T06:46:09.487Z,14.37
2017-12-27T06:48:36.953Z,14.57
2017-12-27T06:51:04.424Z,14.67
2017-12-27T06:53:31.907Z,14.20
2017-12-27T06:55:59.382Z,13.80
2017-12-27T06:58:26.852Z,14.10
2017-12-27T07:00:54.344Z,13.63
2017-12-27T07:03:21.818Z,13.87
2017-12-27T07:05:49.288Z,13.60
2017-12-27T07:08:16.780Z,14.17
2017-12-27T07:10:44.248Z,13.50
2017-12-27T07:13:11.740Z,13.10
2017-12-27T07:15:39.208Z,13.23
2017-12-27T07:18:06.672Z,13.13
2017-12-27T07:20:34.337Z,12.97
2017-12-27T07:23:01.811Z,13.43
2017-12-27T07:25:29.317Z,13.00
2017-12-27T07:27:56.800Z,13.53
2017-12-27T07:30:24.268Z,13.67
2017-12-27T07:32:51.756Z,13.73
2017-12-27T07:35:19.231Z,13.33
2017-12-27T07:37:46.704Z,12.57
2017-12-27T07:40:14.193Z,13.67
2017-12-27T07:42:41.676Z,15.27
2017-12-27T07:45:09.144Z,14.40
2017-12-27T07:47:36.632Z,13.33
2017-12-27T07:50:04.104Z,14.00
2017-12-27T07:52:31.585Z,13.00
2017-12-27T07:54:59.068Z,16.00
2017-12-27T07:57:26.550Z,13.50
2017-12-27T07:59:54.036Z,13.93
2017-12-27T08:02:21.684Z,13.67
2017-12-27T08:04:49.556Z,13.13
2017-12-27T08:07:17.060Z,13.60
2017-12-27T08:09:44.532Z,12.13
2017-12-27T08:12:11.996Z,12.67
2017-12-27T08:14:39.621Z,13.80
2017-12-27T08:17:07.105Z,13.13
2017-12-27T08:19:34.572Z,13.40
2017-12-27T08:22:02.060Z,13.03
2017-12-27T08:24:29.548Z,12.47
2017-12-27T08:26:57.016Z,13.47
2017-12-27T08:29:24.666Z,12.70
2017-12-27T08:31:52.152Z,13.60
2017-12-27T08:34:19.696Z,12.77
2017-12-27T08:36:47.189Z,14.00
2017-12-27T08:39:14.656Z,13.53
2017-12-27T08:41:42.124Z,14.30
2017-12-27T08:44:09.616Z,13.17
2017-12-27T08:46:37.088Z,13.93
2017-12-27T08:49:04.556Z,13.73
2017-12-27T08:51:32.402Z,13.27
2017-12-27T08:53:59.872Z,14.20
2017-12-27T08:56:27.364Z,14.00
2017-12-27T08:58:54.856Z,13.00
2017-12-27T09:01:22.325Z,14.43
2017-12-27T09:03:49.829Z,13.37
2017-12-27T09:06:17.337Z,13.20
2017-12-27T09:08:44.797Z,13.33
2017-12-27T09:11:12.285Z,13.27
2017-12-27T09:13:39.801Z,12.23
2017-12-27T09:16:07.280Z,12.47
2017-12-27T09:18:34.763Z,12.87
2017-12-27T09:21:02.228Z,12.93
2017-12-27T09:23:29.712Z,12.03
2017-12-27T09:25:57.184Z,12.57
2017-12-27T09:28:24.648Z,11.90
2017-12-27T09:30:52.132Z,11.67
2017-12-27T09:33:19.636Z,10.77
2017-12-27T09:35:47.148Z,11.77
2017-12-27T09:38:14.620Z,12.07
2017-12-27T09:40:42.109Z,11.43
2017-12-27T09:43:09.571Z,11.40
2017-12-27T09:45:37.074Z,11.20
2017-12-27T09:48:04.605Z,11.93
2017-12-27T09:50:32.067Z,11.80
2017-12-27T09:52:59.551Z,11.40
2017-12-27T09:55:27.239Z,12.13
2017-12-27T09:57:54.788Z,11.90
2017-12-27T10:00:22.263Z,12.93
2017-12-27T10:02:49.733Z,12.10
2017-12-27T10:05:17.345Z,12.33
2017-12-27T10:07:44.885Z,11.73
2017-12-27T10:10:12.381Z,11.30
2017-12-27T10:12:39.917Z,11.23
2017-12-27T10:15:07.396Z,12.10
2017-12-27T10:17:34.939Z,11.23
2017-12-27T10:20:02.649Z,9.63
2017-12-27T10:22:30.131Z,9.77
2017-12-27T10:24:57.592Z,9.30
2017-12-27T10:27:25.056Z,9.13
2017-12-27T10:29:52.541Z,9.63
2017-12-27T10:32:20.897Z,9.17
2017-12-27T10:34:51.017Z,9.37
2017-12-27T10:37:19.555Z,9.90
2017-12-27T10:39:47.071Z,10.80
2017-12-27T10:42:14.800Z,10.90
2017-12-27T10:44:42.301Z,11.10
2017-12-27T10:47:09.764Z,9.77
2017-12-27T10:49:39.847Z,10.83
2017-12-27T10:52:10.580Z,12.60
2017-12-27T10:54:38.201Z,11.73
2017-12-27T10:57:10.052Z,12.03
2017-12-27T10:59:38.529Z,12.33
2017-12-27T11:02:05.996Z,13.20
2017-12-27T11:04:34.645Z,12.27
2017-12-27T11:07:02.160Z,11.60
2017-12-27T11:09:29.632Z,12.43
2017-12-27T11:11:57.107Z,12.40
2017-12-27T11:14:24.571Z,12.57
2017-12-27T11:16:52.181Z,13.27
2017-12-27T11:19:19.668Z,12.73
2017-12-27T11:21:47.149Z,12.83
2017-12-27T11:24:14.652Z,13.20
2017-12-27T11:26:42.120Z,14.33
2017-12-27T11:29:09.605Z,13.47
2017-12-27T11:31:37.068Z,14.40
2017-12-27T11:34:04.540Z,14.47
2017-12-27T11:36:32.032Z,15.00
2017-12-27T11:38:59.516Z,15.80
2017-12-27T11:41:26.976Z,16.63
2017-12-27T11:43:54.457Z,16.23
2017-12-27T11:46:21.924Z,16.07
2017-12-27T11:48:49.389Z,16.17
2017-12-27T11:51:16.884Z,15.57
2017-12-27T11:53:44.352Z,16.10
2017-12-27T11:56:11.812Z,15.40
2017-12-27T11:58:39.288Z,16.30
2017-12-27T12:01:06.752Z,15.37
2017-12-27T12:03:34.220Z,15.67
2017-12-27T12:06:01.710Z,15.20
2017-12-27T12:08:29.173Z,15.30
2017-12-27T12:10:56.711Z,14.97
2017-12-27T12:13:24.193Z,14.00
2017-12-27T12:15:51.683Z,14.43
2017-12-27T12:18:19.144Z,14.27
2017-12-27T12:20:46.636Z,12.10
2017-12-27T12:23:14.100Z,11.17
2017-12-27T12:25:41.570Z,10.50
2017-12-27T12:28:09.116Z,9.80
2017-12-27T12:30:36.589Z,9.23
2017-12-27T12:33:04.096Z,11.23
2017-12-27T12:35:31.589Z,9.70
2017-12-27T12:37:59.051Z,9.83
2017-12-27T12:40:26.514Z,9.40
2017-12-27T12:42:53.993Z,9.57
2017-12-27T12:45:21.460Z,10.07
2017-12-27T12:47:48.956Z,10.63
2017-12-27T12:50:16.434Z,11.13
2017-12-27T12:52:43.912Z,10.87
2017-12-27T12:55:11.372Z,11.23
2017-12-27T12:57:38.832Z,10.50
2017-12-27T13:00:06.314Z,11.80
2017-12-27T13:02:33.775Z,11.43
2017-12-27T13:05:01.252Z,11.83
2017-12-27T13:07:28.727Z,11.23
2017-12-27T13:09:56.212Z,12.10
2017-12-27T13:12:23.929Z,11.80
2017-12-27T13:14:51.392Z,12.03
2017-12-27T13:17:18.888Z,12.70
2017-12-27T13:19:46.344Z,12.40
2017-12-27T13:22:13.808Z,12.40
2017-12-27T13:24:41.328Z,13.20
2017-12-27T13:27:08.794Z,12.70
2017-12-27T13:29:36.262Z,13.40
2017-12-27T13:32:03.750Z,13.83
2017-12-27T13:34:31.220Z,13.83
2017-12-27T13:36:58.691Z,13.40
2017-12-27T13:39:26.175Z,13.77
2017-12-27T13:41:53.640Z,13.63
2017-12-27T13:44:21.115Z,13.47
2017-12-27T13:46:48.600Z,12.90
2017-12-27T13:49:16.217Z,14.40
2017-12-27T13:51:43.685Z,12.30
2017-12-27T13:54:11.245Z,12.77
2017-12-27T13:56:38.712Z,13.60
2017-12-27T13:59:06.194Z,14.23
2017-12-27T14:01:33.684Z,13.83
2017-12-27T14:04:01.155Z,14.67
2017-12-27T14:06:28.620Z,13.30
2017-12-27T14:08:56.104Z,15.00
2017-12-27T14:11:23.573Z,15.07
2017-12-27T14:13:51.260Z,14.30
2017-12-27T14:16:18.752Z,16.27
2017-12-27T14:18:46.228Z,16.13
2017-12-27T14:21:14.262Z,16.07
2017-12-27T14:23:41.744Z,15.57
2017-12-27T14:26:09.212Z,16.87
2017-12-27T14:28:36.681Z,29.63
2017-12-27T14:31:04.196Z,16.07
2017-12-27T14:33:31.664Z,14.07
2017-12-27T14:35:59.151Z,13.50
2017-12-27T14:38:26.628Z,13.90
2017-12-27T14:40:54.103Z,13.20
2017-12-27T14:43:21.568Z,13.20
2017-12-27T14:45:49.048Z,13.10
2017-12-27T14:48:16.518Z,13.13
2017-12-27T14:50:43.987Z,13.30
2017-12-27T14:53:11.465Z,13.77
2017-12-27T14:55:38.952Z,13.07
2017-12-27T14:58:06.420Z,12.40
2017-12-27T15:00:33.904Z,13.23
2017-12-27T15:03:01.572Z,12.90
2017-12-27T15:05:29.036Z,11.97
2017-12-27T15:07:56.547Z,12.23
2017-12-27T15:10:24.022Z,11.73
2017-12-27T15:12:51.510Z,10.93
2017-12-27T15:15:19.004Z,11.27
2017-12-27T15:17:46.477Z,11.93
2017-12-27T15:20:13.959Z,11.87
2017-12-27T15:22:41.428Z,28.60
2017-12-27T15:25:08.904Z,17.90
2017-12-27T15:27:36.384Z,14.33
2017-12-27T15:30:03.849Z,13.23
2017-12-27T15:32:32.212Z,12.13
2017-12-27T15:34:59.683Z,11.90
2017-12-27T15:37:27.152Z,11.53
2017-12-27T15:39:54.638Z,12.47
2017-12-27T15:42:22.105Z,12.77
2017-12-27T15:44:49.588Z,13.00
2017-12-27T15:47:17.064Z,13.17
2017-12-27T15:49:44.560Z,14.30
2017-12-27T15:52:12.038Z,15.40
2017-12-27T15:54:39.506Z,14.63
2017-12-27T15:57:06.985Z,13.13
2017-12-27T15:59:34.464Z,13.70
2017-12-27T16:02:01.933Z,12.97
2017-12-27T16:04:29.420Z,13.23
2017-12-27T16:06:56.904Z,13.23
2017-12-27T16:09:24.392Z,12.73
2017-12-27T16:11:51.851Z,13.70
2017-12-27T16:14:19.316Z,13.13
2017-12-27T16:16:46.804Z,12.83
2017-12-27T16:19:14.280Z,12.90
2017-12-27T16:21:41.809Z,13.63
2017-12-27T16:24:09.277Z,12.87
2017-12-27T16:26:36.744Z,13.87
2017-12-27T16:29:04.229Z,12.97
2017-12-27T16:31:31.693Z,14.73
2017-12-27T16:33:59.155Z,14.40
2017-12-27T16:36:26.639Z,14.37
2017-12-27T16:38:54.100Z,14.70
2017-12-27T16:41:21.565Z,14.50
2017-12-27T16:43:49.658Z,14.30
2017-12-27T16:46:17.134Z,13.03
2017-12-27T16:48:44.813Z,13.90
2017-12-27T16:51:12.302Z,13.27
2017-12-27T16:53:39.776Z,13.73
2017-12-27T16:56:07.271Z,14.80
2017-12-27T16:58:34.755Z,13.57
2017-12-27T17:01:02.289Z,13.27
2017-12-27T17:03:29.760Z,13.23
2017-12-27T17:05:57.259Z,13.67
2017-12-27T17:08:24.761Z,13.77
2017-12-27T17:10:52.228Z,13.23
2017-12-27T17:13:19.728Z,13.53
2017-12-27T17:15:47.192Z,13.53
2017-12-27T17:18:14.652Z,13.80
2017-12-27T17:20:42.141Z,12.47
2017-12-27T17:23:09.610Z,12.97
2017-12-27T17:25:37.072Z,12.87
2017-12-27T17:28:04.551Z,12.47
2017-12-27T17:30:32.020Z,12.60
2017-12-27T17:32:59.480Z,12.10
2017-12-27T17:35:26.983Z,13.17
2017-12-27T17:37:54.556Z,12.60
2017-12-27T17:40:22.025Z,12.53
2017-12-27T17:42:49.509Z,13.63
2017-12-27T17:45:17.251Z,13.37
2017-12-27T17:47:44.737Z,13.53
2017-12-27T17:50:12.301Z,12.97
2017-12-27T17:52:39.792Z,13.00
2017-12-27T17:55:07.280Z,13.23
2017-12-27T17:57:34.788Z,11.90
2017-12-27T18:00:02.255Z,12.43
2017-12-27T18:02:29.748Z,12.30
2017-12-27T18:04:57.212Z,13.63
2017-12-27T18:07:24.676Z,13.80
2017-12-27T18:09:52.989Z,14.13
2017-12-27T18:12:20.443Z,12.57
2017-12-27T18:14:47.921Z,12.27
2017-12-27T18:17:15.384Z,12.57
2017-12-27T18:19:42.864Z,11.93
2017-12-27T18:22:10.333Z,12.13
2017-12-27T18:24:37.797Z,11.93
2017-12-27T18:27:05.281Z,11.43
2017-12-27T18:29:35.111Z,12.17
2017-12-27T18:32:02.604Z,12.30
2017-12-27T18:34:30.090Z,11.93
2017-12-27T18:36:57.559Z,13.17
2017-12-27T18:39:25.041Z,12.47
2017-12-27T18:41:52.512Z,12.47
2017-12-27T18:44:20.029Z,10.67
2017-12-27T18:46:47.588Z,20.17
2017-12-27T18:49:15.052Z,12.13
2017-12-27T18:51:43.088Z,10.97
2017-12-27T18:54:10.644Z,11.03
2017-12-27T18:56:38.132Z,11.97
2017-12-27T18:59:06.522Z,10.53
2017-12-27T19:01:33.983Z,10.90
2017-12-27T19:04:01.469Z,10.20
2017-12-27T19:06:28.952Z,10.97
2017-12-27T19:08:56.432Z,10.53
2017-12-27T19:11:23.896Z,11.73
2017-12-27T19:13:51.834Z,11.00
2017-12-27T19:16:21.316Z,10.40
2017-12-27T19:18:49.717Z,11.30
2017-12-27T19:21:17.213Z,10.50
2017-12-27T19:23:44.724Z,11.17
2017-12-27T19:26:12.202Z,11.00
2017-12-27T19:28:39.668Z,11.63
2017-12-27T19:31:07.151Z,11.67
2017-12-27T19:33:34.612Z,12.07
2017-12-27T19:36:02.072Z,12.57
2017-12-27T19:38:29.556Z,14.23
2017-12-27T19:40:57.253Z,13.90
2017-12-27T19:43:24.720Z,14.17
2017-12-27T19:45:52.208Z,15.70
2017-12-27T19:48:19.675Z,13.00
2017-12-27T19:50:47.174Z,15.37
2017-12-27T19:53:14.652Z,15.13
2017-12-27T19:55:42.116Z,15.63
2017-12-27T19:58:09.576Z,15.07
2017-12-27T20:00:37.056Z,14.80
2017-12-27T20:03:04.519Z,14.97
2017-12-27T20:05:32.096Z,15.60
2017-12-27T20:07:59.584Z,16.43
2017-12-27T20:10:27.152Z,15.40
2017-12-27T20:12:54.612Z,17.27
2017-12-27T20:15:22.097Z,17.10
2017-12-27T20:17:49.582Z,17.50
2017-12-27T20:20:17.070Z,17.77
2017-12-27T20:22:44.556Z,18.33
2017-12-27T20:25:12.025Z,18.90
2017-12-27T20:27:39.544Z,18.13
2017-12-27T20:30:07.028Z,17.70
2017-12-27T20:32:34.501Z,18.23
2017-12-27T20:35:01.996Z,18.47
2017-12-27T20:37:29.486Z,19.77
2017-12-27T20:39:56.996Z,17.67
2017-12-27T20:42:24.468Z,20.20
2017-12-27T20:44:51.946Z,20.37
2017-12-27T20:47:19.560Z,18.57
2017-12-27T20:49:47.024Z,18.20
2017-12-27T20:52:14.859Z,17.90
2017-12-27T20:54:42.393Z,17.60
2017-12-27T20:57:09.880Z,17.47
2017-12-27T20:59:37.344Z,18.40
2017-12-27T21:02:04.832Z,18.13
2017-12-27T21:04:32.337Z,16.97
2017-12-27T21:06:59.824Z,17.70
2017-12-27T21:09:28.268Z,18.27
2017-12-27T21:11:55.747Z,16.87
2017-12-27T21:14:23.483Z,17.37
2017-12-27T21:16:50.957Z,17.20
2017-12-27T21:19:18.500Z,17.63
2017-12-27T21:21:45.984Z,16.63
2017-12-27T21:24:13.456Z,17.27
2017-12-27T21:26:40.920Z,18.10
2017-12-27T21:29:08.408Z,17.07
2017-12-27T21:31:35.881Z,16.30
2017-12-27T21:34:03.386Z,17.10
2017-12-27T21:36:30.860Z,16.67
2017-12-27T21:38:58.353Z,16.20
2017-12-27T21:41:26.452Z,18.73
2017-12-27T21:43:53.916Z,21.30
2017-12-27T21:46:21.398Z,18.93
2017-12-27T21:48:54.488Z,17.10
2017-12-27T21:51:21.975Z,17.23
2017-12-27T21:53:49.440Z,16.40
2017-12-27T21:56:16.944Z,14.20
2017-12-27T21:58:50.132Z,20.33
2017-12-27T22:01:23.138Z,15.10
2017-12-27T22:03:50.609Z,15.73
2017-12-27T22:06:18.075Z,14.97
2017-12-27T22:08:45.563Z,14.40
2017-12-27T22:11:13.032Z,14.00
2017-12-27T22:13:40.522Z,14.33
2017-12-27T22:16:07.989Z,12.80
2017-12-27T22:18:35.666Z,12.30
2017-12-27T22:21:08.988Z,13.83
2017-12-27T22:23:36.740Z,13.10
2017-12-27T22:26:04.228Z,13.90
2017-12-27T22:28:32.286Z,12.43
2017-12-27T22:30:59.751Z,12.57
2017-12-27T22:33:27.303Z,12.23
2017-12-27T22:35:54.771Z,15.03
2017-12-27T22:38:22.261Z,11.90
2017-12-27T22:40:49.748Z,11.90
2017-12-27T22:43:17.233Z,11.53
2017-12-27T22:45:44.707Z,12.47
2017-12-27T22:48:12.235Z,14.10
2017-12-27T22:50:39.695Z,13.67
2017-12-27T22:53:07.243Z,12.57
2017-12-27T22:55:34.736Z,12.00
2017-12-27T22:58:02.224Z,11.63
2017-12-27T23:00:29.725Z,12.00
2017-12-27T23:02:57.284Z,12.40
2017-12-27T23:05:24.748Z,12.00
2017-12-27T23:07:52.319Z,12.57
2017-12-27T23:10:19.799Z,10.57
2017-12-27T23:12:47.276Z,10.87
2017-12-27T23:15:14.739Z,10.43
2017-12-27T23:17:42.228Z,10.13
2017-12-27T23:20:09.698Z,10.47
2017-12-27T23:22:37.164Z,10.20
2017-12-27T23:25:05.499Z,9.50
2017-12-27T23:27:32.977Z,9.73
2017-12-27T23:30:00.436Z,9.03
2017-12-27T23:32:27.908Z,8.83
2017-12-27T23:34:55.368Z,8.97
2017-12-27T23:37:22.852Z,8.23
2017-12-27T23:39:50.340Z,8.00
2017-12-27T23:42:17.791Z,7.67
2017-12-27T23:44:45.244Z,7.10
2017-12-27T23:47:12.718Z,7.10
2017-12-27T23:49:40.178Z,6.90
2017-12-27T23:52:07.676Z,7.37
2017-12-27T23:54:35.150Z,7.40
2017-12-27T23:57:02.609Z,7.43
2017-12-27T23:59:30.176Z,8.87
